Terminal Aerodrome Forecast
Issued by NWS Greer, SC

Home | Current Version | Previous Version | Text Only | Print | Product List | Glossary On
Versions: 1 2 3 4 5 6 7 8 9 10 11 12 13 14 15 16 17 18
873
FTUS42 KGSP 271551 AAB
TAFGSP
TAF AMD
KGSP 271551Z 2716/2812 21005KT P6SM SCT015 BKN110
      TEMPO 2716/2718 BKN015
     FM271800 23007KT P6SM SCT040
      TEMPO 2719/2723 4SM -TSRA BR OVC025CB
     FM272300 24003KT P6SM VCSH BKN050
     FM280800 VRB02KT 5SM BR SCT070=

USA.gov is the U.S. government's official web portal to all federal, state and local government web resources and services.